Time;durP1;ratioP1;P1;durP2;ratioP2;P2;SDS_P1;SDS_P2;PMS_P1;PMS_P2;Temp;Humidity;BMP_temperature;BMP_pressure;BME280_temperature;BME280_humidity;BME280_pressure;Samples;Min_cycle;Max_cycle;Signal;HPM_P1;HPM_P2
2022/03/29 00:01:06;;;;;;;15.03;2.70;;;;;;;5.28;81.77;148988.02;1802753;79;21550;-63
2022/03/29 00:03:33;;;;;;;22.13;2.87;;;;;;;5.30;81.85;148993.19;1802446;79;21060;-62
2022/03/29 00:06:00;;;;;;;21.70;2.52;;;;;;;5.30;81.87;148994.50;1803323;79;21214;-62
2022/03/29 00:08:29;;;;;;;24.57;2.95;;;;;;;5.30;82.01;148993.19;1802749;79;20996;-62
2022/03/29 00:10:57;;;;;;;16.00;2.60;;;;;;;5.29;82.09;148990.59;1802948;79;21072;-62
2022/03/29 00:13:26;;;;;;;22.32;2.65;;;;;;;5.29;82.12;148990.59;1802404;79;21048;-62
2022/03/29 00:15:53;;;;;;;25.30;2.65;;;;;;;5.30;82.10;148993.19;1802984;79;21009;-61
2022/03/29 00:18:39;;;;;;;22.07;2.65;;;;;;;5.32;82.14;148998.34;1803028;79;21064;-61
2022/03/29 00:21:24;;;;;;;;;;;;;;;5.35;82.28;149006.09;1784901;79;21168;-62
2022/03/29 00:23:51;;;;;;;15.72;2.47;;;;;;;5.37;82.24;149011.25;1803352;79;20130;-63
2022/03/29 00:26:19;;;;;;;19.90;3.15;;;;;;;5.36;82.29;149007.41;1803681;79;21400;-62
2022/03/29 00:28:47;;;;;;;21.50;2.60;;;;;;;5.34;82.47;149003.52;1803199;79;21079;-61
2022/03/29 00:31:16;;;;;;;24.80;3.58;;;;;;;5.34;82.74;149003.52;1778852;79;21208;-60
2022/03/29 00:33:47;;;;;;;35.50;3.40;;;;;;;5.32;83.05;148998.34;1802912;79;20969;-61
2022/03/29 00:36:14;;;;;;;29.90;3.72;;;;;;;5.33;83.32;149000.92;1800389;79;21467;-60
2022/03/29 00:38:41;;;;;;;14.00;2.50;;;;;;;5.33;83.62;148999.66;1795932;79;21581;-60
2022/03/29 00:41:09;;;;;;;21.12;2.98;;;;;;;5.33;84.34;149000.92;1796208;79;21084;-60
2022/03/29 00:43:36;;;;;;;24.67;3.42;;;;;;;5.34;84.58;149003.52;1795726;79;21249;-60
2022/03/29 00:46:04;;;;;;;20.17;3.00;;;;;;;5.35;84.87;149006.09;1764483;79;21411;-61
2022/03/29 00:48:31;;;;;;;19.00;2.80;;;;;;;5.34;85.12;149002.25;1764753;79;21086;-61
2022/03/29 00:50:58;;;;;;;17.42;2.92;;;;;;;5.32;85.42;148998.34;1795791;79;21029;-60
2022/03/29 00:53:25;;;;;;;25.00;3.40;;;;;;;5.31;85.84;148995.77;1795519;79;21473;-60
2022/03/29 00:55:54;;;;;;;29.02;2.95;;;;;;;5.31;86.24;148995.77;1795583;79;21272;-61
2022/03/29 00:58:21;;;;;;;21.30;2.70;;;;;;;5.31;86.49;148995.77;1764673;79;21036;-62
2022/03/29 01:00:48;;;;;;;30.12;3.98;;;;;;;5.31;86.91;148995.77;1795651;79;21038;-59
2022/03/29 01:03:16;;;;;;;22.45;2.65;;;;;;;5.32;87.20;148998.34;1795696;79;20978;-60
2022/03/29 01:05:44;;;;;;;12.07;3.00;;;;;;;5.29;87.45;148991.86;1764736;79;22158;-59
2022/03/29 01:08:14;;;;;;;24.63;4.15;;;;;;;5.30;87.63;148993.19;1796138;79;21903;-60
2022/03/29 01:10:45;;;;;;;26.45;2.65;;;;;;;5.29;87.85;148990.59;1795874;79;21474;-61
2022/03/29 01:13:12;;;;;;;15.08;2.52;;;;;;;5.27;88.06;148986.70;1765035;79;21038;-60
2022/03/29 01:15:40;;;;;;;21.68;2.70;;;;;;;5.27;88.24;148985.44;1795638;79;21463;-61
2022/03/29 01:18:07;;;;;;;24.57;3.05;;;;;;;5.26;88.43;148984.13;1765329;79;21018;-60
2022/03/29 01:20:37;;;;;;;22.65;3.20;;;;;;;5.25;88.93;148980.27;1795734;79;21012;-60
2022/03/29 01:23:04;;;;;;;22.30;4.33;;;;;;;5.24;89.17;148977.69;1764792;79;20986;-61
2022/03/29 01:25:40;;;;;;;22.42;2.90;;;;;;;5.23;89.27;148975.09;1795185;79;21000;-61
2022/03/29 01:28:08;;;;;;;26.20;3.33;;;;;;;5.20;89.58;148968.62;1795817;79;21020;-60
2022/03/29 01:30:36;;;;;;;20.15;2.45;;;;;;;5.18;89.72;148962.14;1795748;79;21470;-61
2022/03/29 01:33:06;;;;;;;31.33;3.72;;;;;;;5.14;90.07;148954.39;1795804;79;21030;-61
2022/03/29 01:35:34;;;;;;;21.70;2.67;;;;;;;5.13;90.47;148951.81;1764146;79;21043;-60
2022/03/29 01:38:01;;;;;;;18.27;2.65;;;;;;;5.14;90.73;148954.39;1801895;79;21091;-60
2022/03/29 01:40:28;;;;;;;28.85;3.50;;;;;;;5.13;90.91;148951.81;1755513;80;21126;-61
2022/03/29 01:42:59;;;;;;;28.55;3.35;;;;;;;5.14;91.11;148954.39;1768699;80;21109;-60
2022/03/29 01:45:30;;;;;;;16.93;2.65;;;;;;;5.14;91.33;148953.13;1769321;80;21259;-60
2022/03/29 01:47:57;;;;;;;28.02;3.35;;;;;;;5.10;91.54;148942.80;1769307;81;21049;-60
2022/03/29 01:50:24;;;;;;;30.37;3.40;;;;;;;5.09;91.76;148940.22;1768979;80;21038;-60
2022/03/29 01:52:53;;;;;;;22.82;2.87;;;;;;;5.06;92.03;148933.73;1769145;81;21161;-60
2022/03/29 01:55:20;;;;;;;26.30;3.05;;;;;;;5.04;92.29;148928.56;1769022;80;21065;-60
2022/03/29 01:57:49;;;;;;;18.67;2.75;;;;;;;5.05;92.60;148929.84;1769136;81;21134;-60
2022/03/29 02:00:33;;;;;;;20.27;3.10;;;;;;;5.05;92.89;148931.16;1746183;81;20940;-61
2022/03/29 02:03:04;;;;;;;25.15;4.37;;;;;;;5.04;93.20;148928.56;1769737;80;21081;-62
2022/03/29 02:05:32;;;;;;;17.17;2.60;;;;;;;5.06;93.52;148932.41;1736069;82;21073;-60
2022/03/29 02:08:00;;;;;;;29.63;3.35;;;;;;;5.08;93.69;148938.91;1735032;82;21299;-60
2022/03/29 02:10:29;;;;;;;28.73;3.50;;;;;;;5.07;93.84;148936.31;1697804;84;21160;-60
2022/03/29 02:12:57;;;;;;;29.18;3.85;;;;;;;5.06;94.13;148933.73;1691471;83;21520;-61
2022/03/29 02:15:26;;;;;;;23.73;2.40;;;;;;;5.05;94.31;148931.16;1713491;83;21095;-61
2022/03/29 02:17:55;;;;;;;22.35;3.02;;;;;;;5.05;94.57;148929.84;1713854;83;21154;-61
2022/03/29 02:20:24;;;;;;;23.73;3.08;;;;;;;5.05;94.86;148931.16;1714017;83;21067;-61
2022/03/29 02:22:51;;;;;;;21.77;3.33;;;;;;;5.05;95.34;148929.84;1714064;83;21215;-61
2022/03/29 02:25:19;;;;;;;15.08;3.45;;;;;;;5.06;95.71;148932.41;1713553;83;20996;-60
2022/03/29 02:27:49;;;;;;;16.10;3.58;;;;;;;5.06;95.95;148933.73;1713883;83;21055;-61
2022/03/29 02:30:17;;;;;;;19.02;2.87;;;;;;;5.06;96.43;148933.73;1713522;83;21091;-61
2022/03/29 02:32:44;;;;;;;21.77;2.77;;;;;;;5.05;96.62;148931.16;1713883;83;21078;-60
2022/03/29 02:35:11;;;;;;;25.55;3.52;;;;;;;5.04;96.89;148928.56;1714020;83;21872;-60
2022/03/29 02:37:40;;;;;;;38.13;3.95;;;;;;;5.02;97.09;148923.41;1712845;82;21054;-60
2022/03/29 02:40:09;;;;;;;18.15;2.60;;;;;;;5.00;97.26;148918.23;1713627;83;21035;-61
2022/03/29 02:42:45;;;;;;;21.95;3.15;;;;;;;4.99;97.62;148915.66;1691320;83;21138;-61
2022/03/29 02:45:22;;;;;;;25.00;3.25;;;;;;;4.98;97.97;148913.06;1714908;83;21043;-61
2022/03/29 02:47:52;;;;;;;21.23;2.77;;;;;;;5.01;98.71;148920.81;1714244;83;21113;-61
2022/03/29 02:50:19;;;;;;;17.25;2.40;;;;;;;5.03;99.14;148925.98;1714239;83;20997;-61
2022/03/29 02:52:49;;;;;;;17.02;3.40;;;;;;;5.04;99.41;148928.56;1713830;83;21110;-61
2022/03/29 02:55:18;;;;;;;13.80;2.58;;;;;;;5.06;99.67;148932.41;1691361;83;21102;-62
2022/03/29 02:57:46;;;;;;;19.45;3.10;;;;;;;5.07;99.81;148935.00;1714318;83;21089;-62
2022/03/29 03:00:16;;;;;;;23.02;3.02;;;;;;;5.07;100.00;148936.31;1714166;83;21242;-62
2022/03/29 03:02:48;;;;;;;25.32;3.30;;;;;;;5.07;100.00;148935.00;1714289;83;21047;-62
2022/03/29 03:05:16;;;;;;;30.95;3.25;;;;;;;5.07;100.00;148935.00;1714552;83;20989;-62
2022/03/29 03:07:44;;;;;;;21.95;3.45;;;;;;;5.06;100.00;148933.73;1714364;83;21051;-62
2022/03/29 03:10:13;;;;;;;22.82;3.25;;;;;;;5.06;100.00;148933.73;1714814;83;21052;-62
2022/03/29 03:12:44;;;;;;;23.25;3.50;;;;;;;5.04;100.00;148928.56;1714603;83;21228;-62
2022/03/29 03:15:14;;;;;;;26.82;3.27;;;;;;;5.04;100.00;148927.25;1714757;83;21566;-61
2022/03/29 03:17:41;;;;;;;24.63;3.42;;;;;;;5.02;100.00;148924.67;1714711;83;21059;-61
2022/03/29 03:20:11;;;;;;;18.23;3.27;;;;;;;5.01;100.00;148922.09;1715047;83;21001;-61
2022/03/29 03:22:38;;;;;;;19.20;3.20;;;;;;;5.01;100.00;148920.81;1692370;83;21047;-62
2022/03/29 03:25:07;;;;;;;23.98;2.60;;;;;;;5.00;100.00;148918.23;1714847;83;21471;-63
2022/03/29 03:27:38;;;;;;;31.37;3.22;;;;;;;5.00;100.00;148918.23;1714344;83;21049;-62
2022/03/29 03:30:07;;;;;;;15.95;3.62;;;;;;;4.98;100.00;148913.06;1714594;83;21040;-60
2022/03/29 03:32:35;;;;;;;24.52;3.30;;;;;;;4.98;100.00;148913.06;1692137;83;21130;-60
2022/03/29 03:35:04;;;;;;;20.90;3.20;;;;;;;4.96;100.00;148907.86;1714889;83;21153;-60
2022/03/29 03:37:33;;;;;;;24.32;3.25;;;;;;;4.94;100.00;148904.02;1714840;82;21516;-61
2022/03/29 03:40:00;;;;;;;25.82;3.75;;;;;;;4.93;100.00;148900.12;1692161;83;21740;-60
2022/03/29 03:42:28;;;;;;;27.55;3.22;;;;;;;4.93;100.00;148901.44;1715013;83;21320;-60
2022/03/29 03:44:55;;;;;;;18.65;2.92;;;;;;;4.91;100.00;148894.95;1714732;83;21063;-60
2022/03/29 03:47:22;;;;;;;26.75;3.42;;;;;;;4.90;100.00;148892.38;1714625;83;20977;-61
2022/03/29 03:49:49;;;;;;;25.27;3.90;;;;;;;4.87;100.00;148885.94;1743615;81;21533;-61
2022/03/29 03:52:17;;;;;;;16.05;2.80;;;;;;;4.87;100.00;148885.94;1721737;82;20969;-61
2022/03/29 03:54:46;;;;;;;18.60;3.62;;;;;;;4.86;100.00;148884.63;1745006;81;21522;-61
2022/03/29 03:57:13;;;;;;;22.85;2.83;;;;;;;4.85;100.00;148880.72;1745212;81;21577;-61
2022/03/29 03:59:41;;;;;;;30.60;4.10;;;;;;;4.85;100.00;148882.05;1744623;82;21132;-60
2022/03/29 04:02:09;;;;;;;20.35;2.98;;;;;;;4.86;100.00;148884.63;1802627;79;21268;-60
2022/03/29 04:04:36;;;;;;;24.45;3.42;;;;;;;4.90;100.00;148892.38;1802506;79;21436;-61
2022/03/29 04:07:06;;;;;;;28.65;3.60;;;;;;;4.92;100.00;148897.53;1744557;79;20969;-60
2022/03/29 04:09:35;;;;;;;21.20;3.10;;;;;;;4.96;100.00;148907.86;1802784;79;22055;-60
2022/03/29 04:12:04;;;;;;;25.12;2.98;;;;;;;4.98;100.00;148914.34;1803546;78;21299;-60
2022/03/29 04:14:31;;;;;;;20.68;2.80;;;;;;;5.04;100.00;148928.56;1803219;79;22085;-60
2022/03/29 04:16:59;;;;;;;16.07;2.58;;;;;;;5.10;100.00;148944.06;1803411;79;21009;-60
2022/03/29 04:19:26;;;;;;;18.30;2.90;;;;;;;5.19;100.00;148964.72;1802921;78;20991;-60
2022/03/29 04:21:54;;;;;;;18.37;3.08;;;;;;;5.26;100.00;148984.13;1803461;79;21060;-60
2022/03/29 04:24:21;;;;;;;23.80;3.62;;;;;;;5.35;100.00;149006.09;1802741;79;20929;-60
2022/03/29 04:26:49;;;;;;;17.30;3.33;;;;;;;5.42;100.00;149024.22;1778158;79;22200;-60
2022/03/29 04:29:16;;;;;;;35.03;5.20;;;;;;;5.51;100.00;149044.89;1803032;79;20984;-61
2022/03/29 04:31:45;;;;;;;19.05;3.02;;;;;;;5.59;100.00;149065.55;1804474;79;21254;-61
2022/03/29 04:34:12;;;;;;;26.48;3.20;;;;;;;5.70;100.00;149094.02;1802903;79;20973;-62
2022/03/29 04:36:41;;;;;;;17.40;3.35;;;;;;;5.80;100.00;149117.28;1778066;79;21011;-63
2022/03/29 04:39:08;;;;;;;17.75;3.00;;;;;;;5.89;100.00;149140.58;1813413;79;21891;-63
2022/03/29 04:41:37;;;;;;;15.00;3.27;;;;;;;5.99;100.00;149166.41;1813979;78;21540;-62
2022/03/29 04:44:05;;;;;;;19.67;3.17;;;;;;;6.07;100.00;149185.88;1813969;79;21020;-62
2022/03/29 04:46:33;;;;;;;21.17;3.37;;;;;;;6.16;100.00;149207.86;1813748;79;21071;-62
2022/03/29 04:49:00;;;;;;;17.05;3.12;;;;;;;6.22;100.00;149223.37;1813823;77;21598;-62
2022/03/29 04:51:28;;;;;;;25.87;3.50;;;;;;;6.29;100.00;149240.19;1781672;79;21758;-61
2022/03/29 04:53:55;;;;;;;26.12;3.77;;;;;;;6.37;100.00;149260.88;1782255;79;21070;-62
2022/03/29 04:56:23;;;;;;;23.90;3.45;;;;;;;6.46;100.00;149282.88;1814512;79;21063;-62
2022/03/29 04:58:51;;;;;;;22.45;3.85;;;;;;;6.53;100.00;149301.02;1814922;79;21003;-61
2022/03/29 05:01:18;;;;;;;16.65;3.37;;;;;;;6.62;100.00;149321.69;1782817;79;21399;-61
2022/03/29 05:03:46;;;;;;;23.60;3.77;;;;;;;6.71;100.00;149344.97;1782516;79;21485;-62
2022/03/29 05:06:13;;;;;;;23.52;3.50;;;;;;;6.78;100.00;149363.11;1814231;78;20997;-61
2022/03/29 05:08:42;;;;;;;21.60;3.52;;;;;;;6.90;100.00;149392.87;1782298;79;21523;-62
2022/03/29 05:11:11;;;;;;;18.35;3.62;;;;;;;7.01;100.00;149420.05;1814211;78;20945;-60
2022/03/29 05:13:38;;;;;;;20.80;3.40;;;;;;;7.15;100.00;149456.25;1813356;78;21724;-60
2022/03/29 05:16:06;;;;;;;19.55;3.67;;;;;;;7.29;99.95;149491.25;1814008;79;21948;-60
2022/03/29 05:18:33;;;;;;;26.48;4.53;;;;;;;7.42;98.92;149523.61;1813308;79;21035;-61
2022/03/29 05:21:02;;;;;;;24.45;5.08;;;;;;;7.52;98.38;149546.91;1814142;78;21012;-61
2022/03/29 05:23:29;;;;;;;21.30;3.10;;;;;;;7.61;97.77;149570.19;1813817;78;21108;-60
2022/03/29 05:25:59;;;;;;;28.80;3.58;;;;;;;7.68;97.08;149588.34;1782759;79;21517;-60
2022/03/29 05:28:26;;;;;;;24.45;3.62;;;;;;;7.72;96.54;149598.69;1813583;77;21583;-60
2022/03/29 05:30:55;;;;;;;24.10;3.50;;;;;;;7.78;96.29;149611.62;1782401;79;20972;-60
2022/03/29 05:33:22;;;;;;;21.07;3.77;;;;;;;7.84;95.96;149627.16;1813895;79;20920;-61
2022/03/29 05:35:50;;;;;;;35.05;4.03;;;;;;;7.89;95.67;149640.14;1782726;79;21039;-60
2022/03/29 05:38:18;;;;;;;17.62;3.77;;;;;;;7.94;95.18;149653.08;1808792;78;20986;-61
2022/03/29 05:40:46;;;;;;;22.35;3.70;;;;;;;7.98;94.78;149663.44;1802264;78;21123;-61
2022/03/29 05:43:13;;;;;;;25.55;4.78;;;;;;;8.00;94.54;149668.61;1802883;79;21004;-62
2022/03/29 05:45:41;;;;;;;35.78;4.00;;;;;;;8.05;94.29;149678.97;1802606;79;21008;-61
2022/03/29 05:48:56;;;;;;;28.55;3.72;;;;;;;8.13;94.09;149701.00;1778557;79;21114;-62
2022/03/29 05:50:39;;;;;;;15.70;3.70;;;;;;;8.19;93.68;149715.25;1798663;79;20982;-61
2022/03/29 05:53:07;;;;;;;23.32;3.75;;;;;;;8.27;93.33;149734.69;1803400;79;21067;-61
2022/03/29 05:55:34;;;;;;;22.73;3.92;;;;;;;8.35;93.00;149754.12;1802758;79;21071;-60
2022/03/29 05:58:02;;;;;;;24.90;3.92;;;;;;;8.44;92.64;149777.44;1803251;79;21015;-61
2022/03/29 06:00:31;;;;;;;25.68;4.28;;;;;;;8.52;92.10;149798.23;1778753;79;21048;-61
2022/03/29 06:02:58;;;;;;;21.87;4.37;;;;;;;8.62;91.66;149822.86;1778791;79;21016;-60
2022/03/29 06:05:26;;;;;;;25.62;5.17;;;;;;;8.74;91.45;149852.66;1803287;79;21197;-59
2022/03/29 06:07:53;;;;;;;26.42;5.55;;;;;;;8.86;91.11;149882.47;1778577;79;21345;-60
2022/03/29 06:10:22;;;;;;;22.85;3.92;;;;;;;9.00;90.57;149917.47;1803173;79;21029;-60
2022/03/29 06:12:49;;;;;;;28.85;4.37;;;;;;;9.13;90.08;149951.12;1803003;79;21542;-61
2022/03/29 06:15:18;;;;;;;17.60;4.85;;;;;;;9.30;89.58;149992.63;1778449;79;20975;-60
2022/03/29 06:17:45;;;;;;;28.42;5.05;;;;;;;9.45;88.55;150031.53;1802805;79;21172;-61
2022/03/29 06:20:14;;;;;;;21.68;4.00;;;;;;;9.62;88.08;150073.05;1802800;79;21013;-60
2022/03/29 06:22:47;;;;;;;22.80;3.85;;;;;;;9.78;86.83;150111.91;1802389;79;21004;-60
2022/03/29 06:25:12;;;;;;;23.42;5.10;;;;;;;9.84;85.69;150127.52;1777491;79;21004;-60
2022/03/29 06:27:40;;;;;;;26.37;4.10;;;;;;;9.86;85.11;150132.70;1799971;78;20976;-60
2022/03/29 06:30:08;;;;;;;24.55;4.97;;;;;;;9.88;84.82;150139.16;1767140;79;21262;-61
2022/03/29 06:32:47;;;;;;;25.17;4.75;;;;;;;9.93;84.38;150150.84;1742429;80;21039;-62
2022/03/29 06:35:16;;;;;;;29.12;4.08;;;;;;;9.97;83.60;150159.94;1759923;80;21058;-62
2022/03/29 06:37:45;;;;;;;19.55;4.20;;;;;;;9.93;82.91;150150.84;1759332;79;21071;-61
2022/03/29 06:40:12;;;;;;;26.40;4.67;;;;;;;9.89;82.63;150141.75;1760119;80;21016;-61
2022/03/29 06:42:41;;;;;;;17.20;3.92;;;;;;;9.89;82.60;150140.47;1736365;81;21435;-62
2022/03/29 06:45:10;;;;;;;24.82;4.65;;;;;;;9.92;82.61;150148.25;1759932;80;21444;-62
2022/03/29 06:47:39;;;;;;;20.95;4.28;;;;;;;9.94;82.48;150152.11;1759980;80;21034;-62
2022/03/29 06:50:08;;;;;;;24.10;4.72;;;;;;;9.99;82.38;150166.39;1759954;80;21082;-63
2022/03/29 06:52:41;;;;;;;25.27;4.72;;;;;;;10.06;82.06;150183.27;1760084;79;21106;-61
2022/03/29 06:55:10;;;;;;;20.62;4.67;;;;;;;10.10;81.57;150192.36;1760008;80;21214;-61
2022/03/29 06:57:37;;;;;;;21.60;4.42;;;;;;;10.11;81.35;150194.95;1736541;81;21090;-61
2022/03/29 07:00:06;;;;;;;23.22;4.67;;;;;;;10.13;81.02;150200.13;1759988;81;21098;-61
2022/03/29 07:02:34;;;;;;;25.45;4.28;;;;;;;10.17;80.75;150210.50;1736799;81;21066;-60
2022/03/29 07:05:02;;;;;;;28.57;4.78;;;;;;;10.23;80.24;150226.06;1759846;80;21616;-60
2022/03/29 07:07:29;;;;;;;25.32;5.35;;;;;;;10.26;79.88;150233.84;1760114;80;21501;-61
2022/03/29 07:12:54;;;;;;;22.58;4.92;;;;;;;10.42;79.25;150272.83;1760213;80;21022;-63
2022/03/29 07:15:21;;;;;;;21.70;4.83;;;;;;;10.56;78.56;150307.86;1759988;80;21413;-61
2022/03/29 07:17:48;;;;;;;17.73;4.75;;;;;;;10.68;77.79;150337.70;1759761;80;21094;-60
2022/03/29 07:20:19;;;;;;;22.07;5.60;;;;;;;10.77;77.31;150361.09;1760256;81;20948;-60
2022/03/29 07:22:47;;;;;;;21.30;5.00;;;;;;;10.86;76.88;150384.44;1735983;81;21523;-62
2022/03/29 07:25:16;;;;;;;19.50;4.95;;;;;;;10.94;76.12;150402.58;1759564;80;21098;-62
2022/03/29 07:27:44;;;;;;;21.37;5.12;;;;;;;11.01;75.92;150420.78;1759626;80;21109;-62
2022/03/29 07:30:13;;;;;;;21.48;4.65;;;;;;;11.10;75.74;150442.86;1759796;81;20996;-60
2022/03/29 07:32:49;;;;;;;16.77;5.08;;;;;;;11.20;75.39;150467.53;1736462;81;21118;-60
2022/03/29 07:35:20;;;;;;;26.50;6.00;;;;;;;11.34;74.99;150503.86;1759375;80;20980;-60
2022/03/29 07:37:47;;;;;;;31.20;5.12;;;;;;;11.53;74.35;150550.61;1759507;80;21067;-61
2022/03/29 07:40:17;;;;;;;25.55;5.87;;;;;;;11.73;73.67;150602.56;1759566;81;21410;-61
2022/03/29 07:42:44;;;;;;;24.87;5.30;;;;;;;11.93;73.14;150651.92;1759494;80;21602;-61
2022/03/29 07:45:16;;;;;;;30.88;5.90;;;;;;;12.15;72.50;150706.53;1759355;81;21292;-62
2022/03/29 07:47:43;;;;;;;15.30;5.33;;;;;;;12.36;71.72;150758.50;1762203;79;21032;-62
2022/03/29 07:50:12;;;;;;;21.62;6.17;;;;;;;12.48;69.69;150789.66;1750925;79;21067;-62
2022/03/29 07:52:42;;;;;;;35.55;6.47;;;;;;;12.52;69.22;150800.09;1802344;79;21327;-63
2022/03/29 07:55:11;;;;;;;22.82;6.62;;;;;;;12.57;68.55;150813.08;1776293;79;21036;-62
2022/03/29 07:57:39;;;;;;;20.35;6.15;;;;;;;12.61;67.99;150823.47;1775636;79;21209;-60
2022/03/29 08:02:54;;;;;;;24.18;6.17;;;;;;;12.73;67.04;150852.08;1802277;79;21084;-61
2022/03/29 08:05:21;;;;;;;21.17;6.35;;;;;;;12.77;66.34;150862.47;1802185;79;20941;-62
2022/03/29 08:07:49;;;;;;;25.50;6.83;;;;;;;12.83;66.01;150878.06;1802364;79;21108;-63
2022/03/29 08:10:18;;;;;;;16.87;5.87;;;;;;;12.94;65.49;150904.08;1778370;79;21207;-64
2022/03/29 08:12:45;;;;;;;21.65;6.78;;;;;;;13.03;65.03;150927.45;1801561;79;21068;-62
2022/03/29 08:15:17;;;;;;;21.80;6.67;;;;;;;13.13;64.28;150952.16;1802280;79;21065;-62
2022/03/29 08:17:48;;;;;;;29.02;7.58;;;;;;;13.18;63.83;150966.47;1793094;79;21004;-62
2022/03/29 08:20:15;;;;;;;22.95;6.83;;;;;;;13.31;63.50;150997.66;1784963;79;20961;-62
2022/03/29 08:22:47;;;;;;;19.87;5.60;;;;;;;13.45;63.27;151034.13;1759465;81;21840;-61
2022/03/29 08:25:15;;;;;;;23.07;5.40;;;;;;;13.61;63.43;151074.42;1764884;79;21025;-61
2022/03/29 08:27:44;;;;;;;20.50;5.20;;;;;;;13.74;63.65;151106.94;1799045;79;21076;-61
2022/03/29 08:30:12;;;;;;;25.12;5.60;;;;;;;13.86;63.70;151135.58;1769142;79;21001;-62
2022/03/29 08:32:39;;;;;;;31.00;5.33;;;;;;;13.90;63.48;151147.25;1738955;79;21577;-62
2022/03/29 08:35:08;;;;;;;25.12;5.25;;;;;;;13.90;63.57;151145.97;1774497;79;21129;-63
2022/03/29 08:37:36;;;;;;;19.75;5.83;;;;;;;13.93;63.63;151153.77;1757879;79;21163;-63
2022/03/29 08:40:12;;;;;;;22.52;5.42;;;;;;;13.95;63.59;151157.69;1802872;79;21080;-61
2022/03/29 08:42:46;;;;;;;25.97;5.53;;;;;;;13.97;63.57;151164.16;1803158;79;21059;-62
2022/03/29 08:45:16;;;;;;;24.98;5.15;;;;;;;14.00;63.54;151171.97;1803385;79;21467;-63
2022/03/29 08:47:45;;;;;;;20.52;5.28;;;;;;;14.06;63.45;151185.00;1803164;79;21718;-63
2022/03/29 08:50:14;;;;;;;24.23;5.33;;;;;;;14.08;63.26;151190.20;1803488;79;21029;-63
2022/03/29 08:52:41;;;;;;;24.72;4.85;;;;;;;14.12;63.19;151200.59;1802881;79;21038;-63
2022/03/29 08:55:09;;;;;;;25.90;4.45;;;;;;;14.18;63.12;151217.53;1803402;79;20928;-63
2022/03/29 08:57:37;;;;;;;25.62;5.45;;;;;;;14.29;62.89;151243.53;1803549;79;21123;-61
2022/03/29 09:00:07;;;;;;;22.07;4.90;;;;;;;14.37;62.50;151264.38;1803390;79;21331;-62
2022/03/29 09:02:37;;;;;;;28.32;6.30;;;;;;;14.46;62.18;151286.45;1803290;79;21447;-62
2022/03/29 09:05:24;;;;;;;21.20;5.15;;;;;;;14.53;62.08;151304.70;1803355;79;21089;-62
2022/03/29 09:08:03;;;;;;;28.15;5.90;;;;;;;14.64;61.87;151330.70;1803155;79;21026;-62
2022/03/29 09:10:48;;;;;;;17.37;4.28;;;;;;;14.73;61.33;151355.48;1803809;79;21065;-62
2022/03/29 09:13:28;;;;;;;18.55;5.00;;;;;;;14.77;61.00;151363.28;1803262;79;21151;-61
2022/03/29 09:16:01;;;;;;;19.25;5.90;;;;;;;14.72;60.53;151351.61;1778079;79;21050;-62
2022/03/29 09:18:29;;;;;;;26.42;5.20;;;;;;;14.65;60.49;151333.31;1802402;79;21029;-62
2022/03/29 09:21:14;;;;;;;19.05;5.28;;;;;;;14.53;60.27;151304.70;1796835;79;21069;-63
2022/03/29 09:23:44;;;;;;;23.87;5.60;;;;;;;14.31;60.03;151248.72;1803003;79;20997;-63
2022/03/29 09:26:28;;;;;;;24.32;5.03;;;;;;;14.01;60.53;151174.56;1774774;79;21133;-63
2022/03/29 09:28:55;;;;;;;19.45;5.10;;;;;;;13.83;61.10;151127.77;1802842;79;21015;-63
2022/03/29 09:31:24;;;;;;;30.90;5.60;;;;;;;13.69;61.61;151093.94;1798599;79;20894;-63
2022/03/29 09:33:51;;;;;;;27.22;5.90;;;;;;;13.62;61.96;151075.75;1783585;79;21120;-62
2022/03/29 09:36:24;;;;;;;23.77;5.60;;;;;;;13.53;62.23;151053.64;1803062;79;20917;-62
2022/03/29 09:38:52;;;;;;;22.13;5.03;;;;;;;13.38;62.55;151015.89;1803061;78;21441;-63
2022/03/29 09:41:32;;;;;;;19.62;5.50;;;;;;;13.27;63.18;150988.58;1803140;79;21034;-62
2022/03/29 09:44:08;;;;;;;22.17;5.20;;;;;;;13.20;63.48;150969.06;1802431;79;21601;-62
2022/03/29 09:47:02;;;;;;;22.52;5.28;;;;;;;13.07;64.01;150937.84;1802372;79;21041;-63
2022/03/29 09:49:52;;;;;;;27.20;5.90;;;;;;;12.99;64.37;150917.06;1778691;79;21095;-62
2022/03/29 09:52:27;;;;;;;21.42;5.78;;;;;;;12.92;64.82;150900.16;1803035;79;21181;-62
2022/03/29 09:55:20;;;;;;;22.32;4.55;;;;;;;12.87;65.04;150887.17;1801144;79;21827;-62
2022/03/29 09:57:53;;;;;;;23.55;4.97;;;;;;;12.80;65.26;150870.27;1802189;79;21063;-62
2022/03/29 10:00:35;;;;;;;19.87;4.95;;;;;;;12.78;65.63;150865.06;1803625;79;21183;-62
2022/03/29 10:03:06;;;;;;;24.07;5.05;;;;;;;12.80;65.82;150868.94;1806583;79;21075;-62
2022/03/29 10:05:35;;;;;;;22.40;6.55;;;;;;;12.81;66.02;150872.86;1802855;79;21221;-66
2022/03/29 10:11:01;;;;;;;20.52;4.85;;;;;;;12.90;66.10;150894.97;1801689;79;21080;-62
2022/03/29 10:13:30;;;;;;;26.23;5.70;;;;;;;12.96;65.98;150909.27;1803898;79;21057;-63
2022/03/29 10:16:00;;;;;;;18.70;5.62;;;;;;;12.99;65.78;150917.06;1801816;79;22166;-62
2022/03/29 10:18:27;;;;;;;23.62;5.87;;;;;;;12.99;65.60;150918.34;1801422;79;21940;-64
2022/03/29 10:20:56;;;;;;;25.23;5.40;;;;;;;12.98;65.81;150915.75;1803404;79;21737;-63
2022/03/29 10:23:28;;;;;;;29.82;5.90;;;;;;;12.97;66.04;150911.87;1798535;79;21490;-62
2022/03/29 10:25:57;;;;;;;20.95;5.22;;;;;;;12.96;66.08;150909.27;1801406;79;21049;-63
2022/03/29 10:28:27;;;;;;;27.80;5.97;;;;;;;12.96;66.05;150909.27;1801480;79;21044;-61
2022/03/29 10:30:56;;;;;;;23.42;5.42;;;;;;;12.96;66.01;150909.27;1801586;79;21051;-61
2022/03/29 10:33:31;;;;;;;20.97;5.92;;;;;;;12.97;65.82;150911.87;1774223;80;21041;-63
2022/03/29 10:36:12;;;;;;;23.80;6.78;;;;;;;12.99;65.69;150917.06;1793973;79;21100;-62
2022/03/29 10:38:54;;;;;;;27.25;6.75;;;;;;;13.06;64.86;150935.25;1758543;80;21108;-59
2022/03/29 10:41:34;;;;;;;24.10;6.10;;;;;;;13.15;63.59;150957.34;1776533;80;20940;-62
2022/03/29 10:44:14;;;;;;;20.65;6.35;;;;;;;13.27;62.30;150987.25;1778488;80;21768;-60
2022/03/29 10:46:46;;;;;;;23.55;7.47;;;;;;;13.37;61.44;151011.97;1778590;80;21059;-61
2022/03/29 10:49:28;;;;;;;21.27;6.80;;;;;;;13.43;60.59;151028.92;1778671;80;21509;-62
2022/03/29 10:51:59;;;;;;;20.08;6.05;;;;;;;13.43;59.86;151028.92;1778803;80;21067;-61
2022/03/29 10:54:29;;;;;;;25.30;6.35;;;;;;;13.43;59.25;151028.92;1777711;79;21121;-60
2022/03/29 10:57:26;;;;;;;25.92;6.40;;;;;;;13.43;58.59;151028.92;1774222;80;21854;-60
2022/03/29 11:00:21;;;;;;;16.32;6.55;;;;;;;13.45;57.90;151034.13;1789409;79;21046;-61
2022/03/29 11:03:15;;;;;;;20.60;6.30;;;;;;;13.51;57.32;151048.44;1792320;79;21042;-61
2022/03/29 11:06:10;;;;;;;16.62;6.35;;;;;;;13.58;57.01;151065.31;1786258;79;21047;-62
2022/03/29 11:08:44;;;;;;;19.05;6.50;;;;;;;13.65;56.61;151083.55;1675979;83;21083;-61
2022/03/29 11:11:48;;;;;;;26.23;6.65;;;;;;;13.72;55.91;151101.73;1748270;81;21055;-61
2022/03/29 11:14:35;;;;;;;24.15;6.65;;;;;;;13.80;55.88;151119.92;1730318;81;21005;-60
2022/03/29 11:17:16;;;;;;;33.70;6.60;;;;;;;13.83;56.52;151127.77;1770162;79;21095;-61
2022/03/29 11:19:49;;;;;;;23.80;7.10;;;;;;;13.77;56.28;151112.13;1770472;79;21102;-61
2022/03/29 11:22:36;;;;;;;17.52;6.10;;;;;;;13.66;56.44;151086.14;1739268;81;20985;-60
2022/03/29 11:25:06;;;;;;;20.62;5.95;;;;;;;13.60;56.48;151070.55;1770975;79;21846;-60
2022/03/29 11:27:36;;;;;;;18.90;5.58;;;;;;;13.54;56.47;151054.91;1778901;80;20920;-61
2022/03/29 11:30:07;;;;;;;28.90;7.25;;;;;;;13.52;56.44;151049.72;1779294;80;21067;-61
2022/03/29 11:32:34;;;;;;;22.77;6.17;;;;;;;13.52;56.57;151049.72;1779347;80;21039;-61
2022/03/29 11:35:04;;;;;;;22.87;6.05;;;;;;;13.52;56.82;151049.72;1776821;79;21462;-61
2022/03/29 11:37:39;;;;;;;25.60;7.15;;;;;;;13.56;57.14;151061.44;1743962;80;21046;-61
2022/03/29 11:40:11;;;;;;;17.98;6.30;;;;;;;13.63;56.96;151078.34;1751073;79;21530;-62
2022/03/29 11:42:50;;;;;;;16.70;5.87;;;;;;;13.73;56.40;151103.06;1794056;78;21000;-61
2022/03/29 11:45:18;;;;;;;20.32;6.47;;;;;;;13.81;56.18;151122.53;1789059;78;21044;-60